createdAt,value
2018-06-28T00:00:24.232Z,101738.25
2018-06-28T00:02:55.299Z,101743.97
2018-06-28T00:05:24.821Z,101741.76
2018-06-28T00:07:54.706Z,101746.63
2018-06-28T00:10:25.298Z,101740.86
2018-06-28T00:12:55.276Z,101741.73
2018-06-28T00:15:25.284Z,101736.88
2018-06-28T00:17:57.516Z,101736.03
2018-06-28T00:20:27.878Z,101728.98
2018-06-28T00:22:57.114Z,101724.13
2018-06-28T00:25:29.135Z,101728.10
2018-06-28T00:27:59.508Z,101724.57
2018-06-28T00:30:41.270Z,101732.04
2018-06-28T00:33:22.931Z,101734.67
2018-06-28T00:36:04.442Z,101723.66
2018-06-28T00:38:34.340Z,101732.03
2018-06-28T00:41:04.722Z,101732.44
2018-06-28T00:43:36.381Z,101727.62
2018-06-28T00:46:06.442Z,101730.67
2018-06-28T00:48:37.391Z,101728.91
2018-06-28T00:51:06.754Z,101727.12
2018-06-28T00:53:36.483Z,101724.94
2018-06-28T00:56:06.303Z,101721.86
2018-06-28T00:58:36.420Z,101721.42
2018-06-28T01:01:10.147Z,101718.34
2018-06-28T01:03:39.481Z,101720.98
2018-06-28T01:06:12.132Z,101710.41
2018-06-28T01:08:41.343Z,101711.28
2018-06-28T01:11:11.201Z,101711.27
2018-06-28T01:13:41.837Z,101704.66
2018-06-28T01:16:13.024Z,101702.05
2018-06-28T01:18:45.276Z,101701.61
2018-06-28T01:21:14.472Z,101700.27
2018-06-28T01:23:46.495Z,101691.45
2018-06-28T01:26:16.016Z,101698.05
2018-06-28T01:28:45.873Z,101703.33
2018-06-28T01:31:15.086Z,101700.67
2018-06-28T01:33:45.134Z,101703.31
2018-06-28T01:36:14.999Z,101693.20
2018-06-28T01:38:46.282Z,101694.94
2018-06-28T01:41:16.357Z,101702.83
2018-06-28T01:43:48.466Z,101700.16
2018-06-28T01:46:20.090Z,101699.72
2018-06-28T01:48:49.501Z,101693.12
2018-06-28T01:51:20.401Z,101693.98
2018-06-28T01:53:52.135Z,101692.23
2018-06-28T01:56:23.476Z,101691.78
2018-06-28T01:58:55.355Z,101692.20
2018-06-28T02:01:25.148Z,101687.36
2018-06-28T02:03:56.540Z,101677.67
2018-06-28T02:06:26.624Z,101679.42
2018-06-28T02:08:57.908Z,101678.97
2018-06-28T02:11:29.328Z,101683.39
2018-06-28T02:13:58.553Z,101685.58
2018-06-28T02:16:30.164Z,101670.63
2018-06-28T02:19:01.497Z,101672.37
2018-06-28T02:21:33.384Z,101672.34
2018-06-28T02:24:04.232Z,101672.77
2018-06-28T02:26:33.443Z,101666.14
2018-06-28T02:29:03.304Z,101667.44
2018-06-28T02:31:33.099Z,101666.55
2018-06-28T02:34:02.813Z,101672.27
2018-06-28T02:36:33.548Z,101665.66
2018-06-28T02:39:06.568Z,101666.95
2018-06-28T02:41:37.697Z,101666.50
2018-06-28T02:44:06.885Z,101663.84
2018-06-28T02:46:37.413Z,101662.95
2018-06-28T02:49:07.874Z,101661.64
2018-06-28T02:51:39.813Z,101654.63
2018-06-28T02:54:10.595Z,101658.56
2018-06-28T02:56:39.747Z,101658.99
2018-06-28T02:59:08.914Z,101653.72
2018-06-28T03:01:40.610Z,101647.58
2018-06-28T03:04:11.598Z,101654.63
2018-06-28T03:06:41.035Z,101652.86
2018-06-28T03:09:12.385Z,101650.67
2018-06-28T03:11:42.374Z,101649.34
2018-06-28T03:14:13.519Z,101646.26
2018-06-28T03:16:44.359Z,101644.94
2018-06-28T03:19:13.687Z,101647.16
2018-06-28T03:21:45.726Z,101653.75
2018-06-28T03:24:15.679Z,101646.27
2018-06-28T03:26:46.643Z,101648.50
2018-06-28T03:29:15.793Z,101655.09
2018-06-28T03:31:44.939Z,101659.06
2018-06-28T03:34:15.976Z,101648.11
2018-06-28T03:36:45.147Z,101650.31
2018-06-28T03:39:16.491Z,101654.25
2018-06-28T03:41:45.781Z,101653.42
2018-06-28T03:44:16.433Z,101653.02
2018-06-28T03:46:47.156Z,101652.59
2018-06-28T03:49:18.619Z,101648.24
2018-06-28T03:51:49.362Z,101643.13
2018-06-28T03:54:18.516Z,101642.75
2018-06-28T03:56:48.774Z,101647.13
2018-06-28T03:59:18.674Z,101647.44
2018-06-28T04:01:50.686Z,101643.77
2018-06-28T04:04:22.443Z,101640.02
2018-06-28T04:06:52.149Z,101646.87
2018-06-28T04:09:24.336Z,101646.25
2018-06-28T04:11:53.537Z,101647.63
2018-06-28T04:14:24.231Z,101637.09
2018-06-28T04:16:55.000Z,101641.18
2018-06-28T04:19:26.958Z,101643.35
2018-06-28T04:21:57.696Z,101647.59
2018-06-28T04:24:26.952Z,101637.77
2018-06-28T04:27:03.117Z,101640.16
2018-06-28T04:29:34.439Z,101643.19
2018-06-28T04:32:06.454Z,101638.05
2018-06-28T04:34:35.661Z,101641.41
2018-06-28T04:37:07.747Z,101638.66
2018-06-28T04:39:39.057Z,101640.94
2018-06-28T04:42:10.555Z,101640.92
2018-06-28T04:44:40.464Z,101642.36
2018-06-28T04:47:09.674Z,101636.53
2018-06-28T04:49:41.437Z,101632.68
2018-06-28T04:52:11.190Z,101633.89
2018-06-28T04:54:42.549Z,101628.94
2018-06-28T04:57:11.763Z,101624.69
2018-06-28T04:59:41.064Z,101628.19
2018-06-28T05:02:10.298Z,101624.31
2018-06-28T05:04:42.154Z,101626.37
2018-06-28T05:07:14.072Z,101629.34
2018-06-28T05:09:44.146Z,101621.77
2018-06-28T05:12:15.693Z,101621.52
2018-06-28T05:14:48.322Z,101622.65
2018-06-28T05:17:17.686Z,101621.41
2018-06-28T05:19:48.824Z,101622.36
2018-06-28T05:22:18.219Z,101620.72
2018-06-28T05:24:48.862Z,101618.30
2018-06-28T05:27:19.157Z,101618.81
2018-06-28T05:29:50.717Z,101626.84
2018-06-28T05:32:22.528Z,101626.58
2018-06-28T05:34:51.723Z,101618.62
2018-06-28T05:37:21.812Z,101621.55
2018-06-28T05:39:52.018Z,101619.64
2018-06-28T05:42:22.357Z,101610.61
2018-06-28T05:44:52.486Z,101609.84
2018-06-28T05:47:22.444Z,101609.05
2018-06-28T05:49:54.829Z,101609.17
2018-06-28T05:52:24.463Z,101608.91
2018-06-28T05:54:55.721Z,101612.81
2018-06-28T05:57:26.691Z,101610.84
2018-06-28T05:59:58.620Z,101603.22
2018-06-28T06:02:27.834Z,101597.92
2018-06-28T06:04:59.999Z,101601.32
2018-06-28T06:07:29.239Z,101591.69
2018-06-28T06:09:59.176Z,101602.45
2018-06-28T06:12:29.654Z,101597.26
2018-06-28T06:15:01.605Z,101590.89
2018-06-28T06:17:31.712Z,101595.36
2018-06-28T06:20:01.128Z,101593.43
2018-06-28T06:22:33.421Z,101595.16
2018-06-28T06:25:02.688Z,101591.67
2018-06-28T06:27:32.445Z,101584.31
2018-06-28T06:30:02.727Z,101587.29
2018-06-28T06:32:33.006Z,101590.83
2018-06-28T06:35:04.768Z,101583.05
2018-06-28T06:37:36.477Z,101581.78
2018-06-28T06:40:07.919Z,101582.04
2018-06-28T06:42:37.164Z,101584.97
2018-06-28T06:45:10.137Z,101576.47
2018-06-28T06:47:46.332Z,101580.96
2018-06-28T06:50:18.106Z,101574.11
2018-06-28T06:52:49.642Z,101577.20
2018-06-28T06:55:18.900Z,101573.20
2018-06-28T06:57:49.090Z,101564.92
2018-06-28T07:00:19.860Z,101564.98
2018-06-28T07:02:52.004Z,101554.81
2018-06-28T07:05:23.589Z,101555.05
2018-06-28T07:07:52.852Z,101557.23
2018-06-28T07:10:23.679Z,101552.55
2018-06-28T07:12:53.454Z,101548.27
2018-06-28T07:15:24.039Z,101535.53
2018-06-28T07:17:54.275Z,101536.92
2018-06-28T07:20:27.681Z,101531.72
2018-06-28T07:22:57.486Z,101542.20
2018-06-28T07:25:28.761Z,101532.04
2018-06-28T07:28:00.440Z,101532.04
2018-06-28T07:30:29.953Z,101526.11
2018-06-28T07:33:01.075Z,101519.78
2018-06-28T07:35:30.271Z,101521.27
2018-06-28T07:37:59.413Z,101520.48
2018-06-28T07:40:28.580Z,101514.84
2018-06-28T07:42:57.741Z,101516.80
2018-06-28T07:45:26.850Z,101511.75
2018-06-28T07:47:55.993Z,101506.17
2018-06-28T07:50:25.103Z,101509.13
2018-06-28T07:52:54.383Z,101506.06
2018-06-28T07:55:26.678Z,101498.73
2018-06-28T07:57:56.256Z,101495.77
2018-06-28T08:00:25.390Z,101504.28
2018-06-28T08:02:54.511Z,101490.00
2018-06-28T08:05:23.634Z,101495.05
2018-06-28T08:07:52.807Z,101495.91
2018-06-28T08:10:21.947Z,101489.05
2018-06-28T08:12:51.082Z,101497.38
2018-06-28T08:15:20.225Z,101488.13
2018-06-28T08:17:49.338Z,101480.83
2018-06-28T08:20:18.511Z,101479.02
2018-06-28T08:22:47.643Z,101475.77
2018-06-28T08:25:16.775Z,101484.32
2018-06-28T08:27:45.878Z,101478.05
2018-06-28T08:30:15.038Z,101480.28
2018-06-28T08:32:44.170Z,101472.90
2018-06-28T08:35:13.269Z,101471.92
2018-06-28T08:37:42.395Z,101472.45
2018-06-28T08:40:11.709Z,101467.84
2018-06-28T08:42:40.881Z,101470.80
2018-06-28T08:45:10.139Z,101472.16
2018-06-28T08:47:39.287Z,101474.25
2018-06-28T08:50:08.656Z,101465.77
2018-06-28T08:52:37.869Z,101467.25
2018-06-28T08:55:07.296Z,101458.59
2018-06-28T08:57:36.482Z,101460.20
2018-06-28T09:00:08.111Z,101464.92
2018-06-28T09:02:37.228Z,101454.39
2018-06-28T09:05:06.398Z,101456.59
2018-06-28T09:07:35.524Z,101446.72
2018-06-28T09:10:04.716Z,101440.97
2018-06-28T09:12:33.830Z,101440.49
2018-06-28T09:15:02.954Z,101440.13
2018-06-28T09:17:32.093Z,101423.84
2018-06-28T09:20:01.227Z,101427.52
2018-06-28T09:22:30.374Z,101426.42
2018-06-28T09:24:59.582Z,101435.44
2018-06-28T09:27:28.743Z,101424.45
2018-06-28T09:29:57.916Z,101424.31
2018-06-28T09:32:27.082Z,101419.95
2018-06-28T09:34:56.200Z,101420.34
2018-06-28T09:37:25.373Z,101428.73
2018-06-28T09:39:54.502Z,101424.91
2018-06-28T09:42:23.707Z,101425.09
2018-06-28T09:44:52.914Z,101408.65
2018-06-28T09:47:22.093Z,101414.34
2018-06-28T09:49:51.193Z,101415.64
2018-06-28T09:52:20.365Z,101402.42
2018-06-28T09:54:49.516Z,101405.55
2018-06-28T09:57:18.658Z,101409.06
2018-06-28T09:59:47.797Z,101431.17
2018-06-28T10:02:16.941Z,101419.76
2018-06-28T10:04:46.064Z,101408.81
2018-06-28T10:07:15.165Z,101403.84
2018-06-28T10:09:44.305Z,101397.22
2018-06-28T10:12:13.446Z,101392.00
2018-06-28T10:14:42.862Z,101396.88
2018-06-28T10:17:12.030Z,101390.80
2018-06-28T10:19:41.150Z,101394.08
2018-06-28T10:22:10.312Z,101383.48
2018-06-28T10:24:39.520Z,101396.52
2018-06-28T10:27:08.624Z,101384.79
2018-06-28T10:29:37.721Z,101388.55
2018-06-28T10:32:06.914Z,101376.42
2018-06-28T10:34:36.033Z,101373.48
2018-06-28T10:37:05.207Z,101382.80
2018-06-28T10:39:34.351Z,101376.09
2018-06-28T10:42:03.555Z,101366.72
2018-06-28T10:44:32.775Z,101364.99
2018-06-28T10:47:01.991Z,101364.22
2018-06-28T10:49:31.206Z,101354.10
2018-06-28T10:52:00.365Z,101347.33
2018-06-28T10:54:29.485Z,101356.91
2018-06-28T10:56:58.641Z,101342.90
2018-06-28T10:59:27.784Z,101339.75
2018-06-28T11:01:56.925Z,101335.81
2018-06-28T11:04:26.078Z,101354.48
2018-06-28T11:06:55.202Z,101339.25
2018-06-28T11:09:24.369Z,101329.96
2018-06-28T11:11:53.565Z,101336.19
2018-06-28T11:14:22.708Z,101336.02
2018-06-28T11:16:51.858Z,101331.22
2018-06-28T11:19:20.996Z,101330.05
2018-06-28T11:21:50.693Z,101321.06
2018-06-28T11:24:19.818Z,101327.45
2018-06-28T11:26:48.962Z,101316.84
2018-06-28T11:29:18.071Z,101316.28
2018-06-28T11:31:47.217Z,101314.90
2018-06-28T11:34:16.354Z,101316.78
2018-06-28T11:36:45.493Z,101312.34
2018-06-28T11:39:14.600Z,101309.47
2018-06-28T11:41:43.808Z,101305.05
2018-06-28T11:44:12.962Z,101290.31
2018-06-28T11:46:43.686Z,101294.22
2018-06-28T11:49:12.818Z,101294.09
2018-06-28T11:51:41.956Z,101297.10
2018-06-28T11:54:11.061Z,101287.72
2018-06-28T11:56:40.254Z,101283.03
2018-06-28T11:59:09.349Z,101282.25
2018-06-28T12:01:38.502Z,101293.27
2018-06-28T12:04:07.634Z,101311.86
2018-06-28T12:06:36.754Z,101282.45
2018-06-28T12:09:09.683Z,101267.71
2018-06-28T12:11:38.838Z,101278.33
2018-06-28T12:14:07.952Z,101265.92
2018-06-28T12:16:37.111Z,101263.37
2018-06-28T12:19:06.221Z,101273.73
2018-06-28T12:21:35.370Z,101271.38
2018-06-28T12:24:04.502Z,101265.66
2018-06-28T12:26:33.691Z,101253.81
2018-06-28T12:29:02.816Z,101257.28
2018-06-28T12:31:31.963Z,101261.94
2018-06-28T12:34:00.917Z,101259.16
2018-06-28T12:36:30.024Z,101263.01
2018-06-28T12:38:59.147Z,101252.82
2018-06-28T12:41:28.074Z,101255.28
2018-06-28T12:43:57.308Z,101249.12
2018-06-28T12:47:53.930Z,101255.63
2018-06-28T12:50:23.048Z,101252.55
2018-06-28T12:52:54.557Z,101242.08
2018-06-28T12:55:24.267Z,101244.44
2018-06-28T12:57:55.171Z,101238.15
2018-06-28T13:00:24.802Z,101243.36
2018-06-28T13:02:54.501Z,101239.33
2018-06-28T13:05:23.646Z,101238.39
2018-06-28T13:07:52.837Z,101238.44
2018-06-28T13:10:21.989Z,101239.31
2018-06-28T13:12:51.115Z,101229.50
2018-06-28T13:15:20.378Z,101228.61
2018-06-28T13:17:49.508Z,101219.13
2018-06-28T13:20:18.669Z,101219.63
2018-06-28T13:22:47.802Z,101217.73
2018-06-28T13:25:17.024Z,101236.95
2018-06-28T13:27:46.138Z,101225.05
2018-06-28T13:30:15.323Z,101213.89
2018-06-28T13:32:44.532Z,101216.92
2018-06-28T13:35:13.728Z,101207.17
2018-06-28T13:37:42.902Z,101212.52
2018-06-28T13:40:12.036Z,101213.66
2018-06-28T13:42:41.190Z,101218.65
2018-06-28T13:45:10.384Z,101209.91
2018-06-28T13:47:39.502Z,101203.47
2018-06-28T13:50:08.650Z,101193.83
2018-06-28T13:52:37.794Z,101190.34
2018-06-28T13:55:06.996Z,101180.71
2018-06-28T13:57:36.194Z,101182.31
2018-06-28T14:00:05.377Z,101170.81
2018-06-28T14:02:34.513Z,101173.95
2018-06-28T14:05:03.665Z,101175.30
2018-06-28T14:07:32.865Z,101173.59
2018-06-28T14:10:02.067Z,101160.22
2018-06-28T14:12:31.233Z,101170.52
2018-06-28T14:15:00.386Z,101171.45
2018-06-28T14:17:29.575Z,101170.11
2018-06-28T14:19:58.753Z,101168.23
2018-06-28T14:22:28.053Z,101176.75
2018-06-28T14:24:57.249Z,101177.30
2018-06-28T14:27:26.721Z,101181.25
2018-06-28T14:29:56.204Z,101170.36
2018-06-28T14:32:25.658Z,101163.47
2018-06-28T14:34:54.834Z,101153.75
2018-06-28T14:37:24.166Z,101150.40
2018-06-28T14:39:54.052Z,101156.55
2018-06-28T14:42:23.230Z,101164.91
2018-06-28T14:44:52.502Z,101157.42
2018-06-28T14:47:21.661Z,101145.13
2018-06-28T14:49:50.783Z,101157.14
2018-06-28T14:52:19.986Z,101165.84
2018-06-28T14:54:49.381Z,101165.17
2018-06-28T14:57:18.582Z,101172.80
2018-06-28T14:59:47.737Z,101168.13
2018-06-28T15:02:16.864Z,101171.47
2018-06-28T15:04:46.121Z,101173.13
2018-06-28T15:07:15.374Z,101166.10
2018-06-28T15:09:44.553Z,101173.97
2018-06-28T15:12:13.711Z,101171.11
2018-06-28T15:14:46.218Z,101164.91
2018-06-28T15:17:15.405Z,101168.63
2018-06-28T15:19:44.550Z,101172.63
2018-06-28T15:22:13.736Z,101157.86
2018-06-28T15:24:42.924Z,101157.41
2018-06-28T15:27:12.289Z,101153.47
2018-06-28T15:29:41.446Z,101155.44
2018-06-28T15:32:10.591Z,101158.84
2018-06-28T15:34:39.726Z,101169.97
2018-06-28T15:37:08.940Z,101166.13
2018-06-28T15:39:38.113Z,101150.02
2018-06-28T15:42:07.277Z,101147.55
2018-06-28T15:44:36.495Z,101151.09
2018-06-28T15:47:05.705Z,101150.70
2018-06-28T15:49:34.904Z,101146.75
2018-06-28T15:52:04.199Z,101151.65
2018-06-28T15:54:33.332Z,101141.23
2018-06-28T15:57:02.498Z,101123.61
2018-06-28T15:59:31.629Z,101133.20
2018-06-28T16:02:00.755Z,101133.30
2018-06-28T16:04:29.871Z,101127.14
2018-06-28T16:06:59.082Z,101113.91
2018-06-28T16:09:28.293Z,101111.30
2018-06-28T16:11:57.450Z,101109.30
2018-06-28T16:14:26.640Z,101116.38
2018-06-28T16:16:55.817Z,101106.75
2018-06-28T16:19:25.029Z,101103.04
2018-06-28T16:21:54.193Z,101092.02
2018-06-28T16:24:23.366Z,101081.55
2018-06-28T16:26:52.549Z,101093.59
2018-06-28T16:29:21.764Z,101092.89
2018-06-28T16:31:50.972Z,101096.90
2018-06-28T16:34:20.095Z,101098.54
2018-06-28T16:36:49.246Z,101094.98
2018-06-28T16:39:18.424Z,101102.28
2018-06-28T16:41:47.586Z,101097.52
2018-06-28T16:44:16.888Z,101101.95
2018-06-28T16:46:46.118Z,101105.95
2018-06-28T16:49:15.296Z,101100.87
2018-06-28T16:51:44.513Z,101099.80
2018-06-28T16:54:13.745Z,101096.86
2018-06-28T16:56:42.933Z,101096.79
2018-06-28T16:59:12.326Z,101099.87
2018-06-28T17:01:41.596Z,101098.59
2018-06-28T17:04:10.756Z,101093.78
2018-06-28T17:06:40.023Z,101099.94
2018-06-28T17:09:10.410Z,101101.03
2018-06-28T17:11:39.584Z,101097.18
2018-06-28T17:14:08.897Z,101093.52
2018-06-28T17:16:38.098Z,101094.37
2018-06-28T17:19:07.340Z,101097.06
2018-06-28T17:21:36.502Z,101091.17
2018-06-28T17:24:06.014Z,101091.85
2018-06-28T17:26:35.146Z,101090.36
2018-06-28T17:29:04.617Z,101098.73
2018-06-28T17:31:33.850Z,101101.30
2018-06-28T17:34:02.996Z,101095.77
2018-06-28T17:36:32.219Z,101095.52
2018-06-28T17:39:01.686Z,101101.14
2018-06-28T17:41:30.876Z,101089.77
2018-06-28T17:44:00.095Z,101088.96
2018-06-28T17:46:29.374Z,101086.09
2018-06-28T17:48:58.874Z,101084.65
2018-06-28T17:51:28.497Z,101082.64
2018-06-28T17:53:57.717Z,101100.56
2018-06-28T17:56:26.939Z,101100.87
2018-06-28T17:58:56.052Z,101091.89
2018-06-28T18:01:25.324Z,101107.09
2018-06-28T18:03:54.757Z,101104.30
2018-06-28T18:06:24.198Z,101106.64
2018-06-28T18:08:53.490Z,101098.84
2018-06-28T18:11:22.821Z,101094.55
2018-06-28T18:13:52.122Z,101092.03
2018-06-28T18:16:21.381Z,101091.29
2018-06-28T18:18:50.655Z,101095.48
2018-06-28T18:21:19.912Z,101095.67
2018-06-28T18:23:49.241Z,101097.30
2018-06-28T18:26:18.553Z,101111.37
2018-06-28T18:28:47.860Z,101102.23
2018-06-28T18:31:17.114Z,101099.74
2018-06-28T18:33:46.351Z,101097.59
2018-06-28T18:36:15.504Z,101099.86
2018-06-28T18:38:44.750Z,101092.38
2018-06-28T18:41:13.710Z,101094.33
2018-06-28T18:43:42.970Z,101108.33
2018-06-28T18:46:12.195Z,101109.03
2018-06-28T18:48:41.369Z,101096.84
2018-06-28T18:51:10.537Z,101105.91
2018-06-28T18:53:39.673Z,101099.09
2018-06-28T18:56:09.051Z,101110.41
2018-06-28T18:58:38.199Z,101108.78
2018-06-28T19:01:07.395Z,101104.11
2018-06-28T19:03:36.754Z,101107.82
2018-06-28T19:06:06.013Z,101111.53
2018-06-28T19:08:35.196Z,101110.92
2018-06-28T19:11:04.574Z,101097.85
2018-06-28T19:13:37.835Z,101111.50
2018-06-28T19:16:13.011Z,101104.18
2018-06-28T19:18:42.231Z,101115.19
2018-06-28T19:21:16.771Z,101113.14
2018-06-28T19:23:50.293Z,101121.41
2018-06-28T19:26:19.901Z,101125.66
2018-06-28T19:28:49.629Z,101129.41
2018-06-28T19:31:24.151Z,101137.19
2018-06-28T19:33:53.332Z,101129.48
2018-06-28T19:36:22.561Z,101140.91
2018-06-28T19:38:57.036Z,101135.00
2018-06-28T19:41:31.559Z,101137.99
2018-06-28T19:44:00.922Z,101137.88
2018-06-28T19:46:30.130Z,101136.83
2018-06-28T19:48:59.922Z,101133.56
2018-06-28T19:51:34.307Z,101140.12
2018-06-28T19:54:03.467Z,101135.08
2018-06-28T19:56:32.886Z,101133.14
2018-06-28T19:59:02.063Z,101121.42
2018-06-28T20:01:37.694Z,101132.80
2018-06-28T20:04:11.996Z,101133.06
2018-06-28T20:06:42.413Z,101136.81
2018-06-28T20:09:12.532Z,101137.98
2018-06-28T20:11:42.132Z,101131.54
2018-06-28T20:14:16.560Z,101135.31
2018-06-28T20:16:51.149Z,101127.50
2018-06-28T20:19:25.531Z,101120.56
2018-06-28T20:21:54.850Z,101125.20
2018-06-28T20:24:24.057Z,101123.62
2018-06-28T20:26:58.689Z,101117.59
2018-06-28T20:29:33.833Z,101121.31
2018-06-28T20:32:08.196Z,101125.39
2018-06-28T20:34:38.336Z,101126.04
2018-06-28T20:37:07.559Z,101117.77
2018-06-28T20:39:36.770Z,101124.56
2018-06-28T20:42:06.576Z,101132.65
2018-06-28T20:44:35.724Z,101132.77
2018-06-28T20:47:04.889Z,101131.16
2018-06-28T20:49:34.067Z,101132.60
2018-06-28T20:52:03.329Z,101129.18
2018-06-28T20:54:32.698Z,101136.46
2018-06-28T20:57:01.836Z,101138.35
2018-06-28T20:59:31.047Z,101133.14
2018-06-28T21:02:00.531Z,101132.41
2018-06-28T21:04:29.776Z,101141.78
2018-06-28T21:06:59.055Z,101139.19
2018-06-28T21:09:28.654Z,101134.02
2018-06-28T21:11:58.101Z,101134.92
2018-06-28T21:14:27.868Z,101137.69
2018-06-28T21:16:58.821Z,101139.05
2018-06-28T21:19:28.489Z,101139.22
2018-06-28T21:21:57.623Z,101139.87
2018-06-28T21:24:26.792Z,101143.62
2018-06-28T21:26:55.989Z,101146.41
2018-06-28T21:29:25.153Z,101147.38
2018-06-28T21:31:54.384Z,101153.27
2018-06-28T21:34:24.241Z,101151.13
2018-06-28T21:36:53.580Z,101150.73
2018-06-28T21:39:22.836Z,101149.92
2018-06-28T21:41:53.049Z,101142.12
2018-06-28T21:44:24.180Z,101151.89
2018-06-28T21:46:55.670Z,101150.67
2018-06-28T21:49:25.289Z,101148.20
2018-06-28T21:51:55.510Z,101150.07
2018-06-28T21:54:24.681Z,101155.42
2018-06-28T21:56:54.721Z,101151.98
2018-06-28T21:59:23.858Z,101153.40
2018-06-28T22:01:55.582Z,101149.93
2018-06-28T22:04:25.990Z,101149.56
2018-06-28T22:06:55.152Z,101147.88
2018-06-28T22:09:27.262Z,101151.45
2018-06-28T22:11:56.942Z,101151.03
2018-06-28T22:14:26.243Z,101140.91
2018-06-28T22:16:55.439Z,101145.36
2018-06-28T22:19:25.849Z,101142.78
2018-06-28T22:21:54.987Z,101145.07
2018-06-28T22:24:24.346Z,101147.75
2018-06-28T22:26:54.483Z,101146.45
2018-06-28T22:29:24.835Z,101140.80
2018-06-28T22:31:55.590Z,101151.94
2018-06-28T22:34:27.332Z,101142.77
2018-06-28T22:36:57.205Z,101141.52
2018-06-28T22:39:27.019Z,101138.47
2018-06-28T22:41:57.613Z,101136.35
2018-06-28T22:44:26.893Z,101139.95
2018-06-28T22:46:56.681Z,101136.90
2018-06-28T22:49:26.954Z,101133.85
2018-06-28T22:51:58.300Z,101136.13
2018-06-28T22:54:28.690Z,101134.03
2018-06-28T22:56:58.961Z,101133.66
2018-06-28T22:59:30.503Z,101120.45
2018-06-28T23:01:59.924Z,101122.77
2018-06-28T23:04:30.568Z,101122.41
2018-06-28T23:07:00.351Z,101124.70
2018-06-28T23:09:30.236Z,101120.81
2018-06-28T23:12:02.304Z,101122.18
2018-06-28T23:14:32.698Z,101125.34
2018-06-28T23:17:03.334Z,101128.09
2018-06-28T23:19:32.520Z,101128.98
2018-06-28T23:22:03.615Z,101125.05
2018-06-28T23:24:33.587Z,101129.06
2018-06-28T23:27:04.401Z,101129.11
2018-06-28T23:29:35.839Z,101123.05
2018-06-28T23:32:07.573Z,101122.65
2018-06-28T23:34:38.977Z,101123.58
2018-06-28T23:37:08.264Z,101128.94
2018-06-28T23:39:39.561Z,101123.73
2018-06-28T23:42:08.886Z,101127.31
2018-06-28T23:44:39.065Z,101122.95
2018-06-28T23:47:09.693Z,101120.34
2018-06-28T23:49:40.582Z,101116.00
2018-06-28T23:52:10.822Z,101115.19
2018-06-28T23:54:42.083Z,101108.63
2018-06-28T23:57:14.427Z,101105.59
2018-06-28T23:59:43.849Z,101101.70
